sensor_id;sensor_type;location;lat;lon;timestamp;pressure;altitude;pressure_sealevel;temperature;humidity
81243;BME280;70716;50.074;14.496;2023-08-01T00:02:01;98079.59;;;18.72;64.49
81243;BME280;70716;50.074;14.496;2023-08-01T00:04:26;98070.41;;;18.54;65.51
81243;BME280;70716;50.074;14.496;2023-08-01T00:06:53;98069.22;;;18.52;65.07
81243;BME280;70716;50.074;14.496;2023-08-01T00:09:19;98070.00;;;18.45;65.75
81243;BME280;70716;50.074;14.496;2023-08-01T00:11:44;98058.94;;;18.38;66.56
81243;BME280;70716;50.074;14.496;2023-08-01T00:14:10;98060.47;;;18.28;67.02
81243;BME280;70716;50.074;14.496;2023-08-01T00:16:38;98052.53;;;18.20;67.24
81243;BME280;70716;50.074;14.496;2023-08-01T00:19:06;98046.97;;;18.12;68.09
81243;BME280;70716;50.074;14.496;2023-08-01T00:21:32;98039.84;;;18.08;68.22
81243;BME280;70716;50.074;14.496;2023-08-01T00:24:00;98039.88;;;18.11;68.03
81243;BME280;70716;50.074;14.496;2023-08-01T00:26:28;98033.53;;;18.04;68.46
81243;BME280;70716;50.074;14.496;2023-08-01T00:29:01;98031.19;;;18.06;68.93
81243;BME280;70716;50.074;14.496;2023-08-01T00:31:27;98025.69;;;18.09;69.61
81243;BME280;70716;50.074;14.496;2023-08-01T00:33:55;98014.19;;;17.97;70.48
81243;BME280;70716;50.074;14.496;2023-08-01T00:36:20;98016.16;;;17.96;70.19
81243;BME280;70716;50.074;14.496;2023-08-01T00:38:51;98011.00;;;17.91;70.77
81243;BME280;70716;50.074;14.496;2023-08-01T00:41:19;97993.69;;;17.87;70.97
81243;BME280;70716;50.074;14.496;2023-08-01T00:43:45;97996.38;;;17.76;71.87
81243;BME280;70716;50.074;14.496;2023-08-01T00:46:12;97975.84;;;17.67;72.28
81243;BME280;70716;50.074;14.496;2023-08-01T00:48:38;97973.91;;;17.71;72.68
81243;BME280;70716;50.074;14.496;2023-08-01T00:51:04;97969.56;;;17.70;73.40
81243;BME280;70716;50.074;14.496;2023-08-01T00:53:30;97975.06;;;17.70;73.30
81243;BME280;70716;50.074;14.496;2023-08-01T00:55:57;97969.19;;;17.71;73.28
81243;BME280;70716;50.074;14.496;2023-08-01T00:58:23;97958.53;;;17.66;73.32
81243;BME280;70716;50.074;14.496;2023-08-01T01:00:48;97960.91;;;17.68;73.25
81243;BME280;70716;50.074;14.496;2023-08-01T01:03:17;97952.56;;;17.64;73.32
81243;BME280;70716;50.074;14.496;2023-08-01T01:06:08;97961.72;;;17.72;72.21
81243;BME280;70716;50.074;14.496;2023-08-01T01:08:34;97955.78;;;17.66;72.63
81243;BME280;70716;50.074;14.496;2023-08-01T01:11:00;97954.53;;;17.60;73.16
81243;BME280;70716;50.074;14.496;2023-08-01T01:13:26;97950.97;;;17.60;73.38
81243;BME280;70716;50.074;14.496;2023-08-01T01:15:57;97948.56;;;17.55;72.81
81243;BME280;70716;50.074;14.496;2023-08-01T01:18:23;97939.91;;;17.53;73.00
81243;BME280;70716;50.074;14.496;2023-08-01T01:20:48;97938.75;;;17.57;72.74
81243;BME280;70716;50.074;14.496;2023-08-01T01:23:14;97940.31;;;17.55;73.40
81243;BME280;70716;50.074;14.496;2023-08-01T01:25:39;97935.22;;;17.57;73.31
81243;BME280;70716;50.074;14.496;2023-08-01T01:28:07;97928.88;;;17.53;74.01
81243;BME280;70716;50.074;14.496;2023-08-01T01:30:32;97927.72;;;17.54;73.59
81243;BME280;70716;50.074;14.496;2023-08-01T01:33:03;97929.28;;;17.51;73.39
81243;BME280;70716;50.074;14.496;2023-08-01T01:35:33;97929.28;;;17.51;73.35
81243;BME280;70716;50.074;14.496;2023-08-01T01:38:10;97926.13;;;17.53;72.99
81243;BME280;70716;50.074;14.496;2023-08-01T01:40:36;97914.69;;;17.47;74.13
81243;BME280;70716;50.074;14.496;2023-08-01T01:43:04;97912.31;;;17.45;73.92
81243;BME280;70716;50.074;14.496;2023-08-01T01:45:35;97916.69;;;17.54;73.25
81243;BME280;70716;50.074;14.496;2023-08-01T01:48:23;97908.38;;;17.46;73.35
81243;BME280;70716;50.074;14.496;2023-08-01T01:50:49;97902.50;;;17.48;72.80
81243;BME280;70716;50.074;14.496;2023-08-01T01:53:14;97890.69;;;17.47;72.79
81243;BME280;70716;50.074;14.496;2023-08-01T01:55:40;97886.38;;;17.50;72.40
81243;BME280;70716;50.074;14.496;2023-08-01T01:58:07;97887.16;;;17.50;72.30
81243;BME280;70716;50.074;14.496;2023-08-01T02:00:32;97874.16;;;17.47;71.98
81243;BME280;70716;50.074;14.496;2023-08-01T02:02:58;97871.81;;;17.49;73.12
81243;BME280;70716;50.074;14.496;2023-08-01T02:05:23;97870.25;;;17.52;72.94
81243;BME280;70716;50.074;14.496;2023-08-01T02:07:49;97860.84;;;17.57;72.04
81243;BME280;70716;50.074;14.496;2023-08-01T02:10:14;97858.03;;;17.49;72.26
81243;BME280;70716;50.074;14.496;2023-08-01T02:12:40;97851.00;;;17.56;71.49
81243;BME280;70716;50.074;14.496;2023-08-01T02:15:10;97853.38;;;17.61;71.42
81243;BME280;70716;50.074;14.496;2023-08-01T02:17:35;97849.84;;;17.64;71.08
81243;BME280;70716;50.074;14.496;2023-08-01T02:20:01;97842.75;;;17.63;71.63
81243;BME280;70716;50.074;14.496;2023-08-01T02:22:26;97845.19;;;17.68;70.80
81243;BME280;70716;50.074;14.496;2023-08-01T02:24:52;97838.50;;;17.69;70.40
81243;BME280;70716;50.074;14.496;2023-08-01T02:27:18;97836.13;;;17.71;70.19
81243;BME280;70716;50.074;14.496;2023-08-01T02:29:43;97833.78;;;17.73;70.92
81243;BME280;70716;50.074;14.496;2023-08-01T02:32:09;97840.84;;;17.67;71.38
81243;BME280;70716;50.074;14.496;2023-08-01T02:34:34;97836.50;;;17.66;71.04
81243;BME280;70716;50.074;14.496;2023-08-01T02:37:00;97835.25;;;17.60;71.55
81243;BME280;70716;50.074;14.496;2023-08-01T02:39:25;97836.84;;;17.61;71.44
81243;BME280;70716;50.074;14.496;2023-08-01T02:41:51;97834.88;;;17.58;72.09
81243;BME280;70716;50.074;14.496;2023-08-01T02:44:16;97836.03;;;17.57;72.07
81243;BME280;70716;50.074;14.496;2023-08-01T02:46:42;97830.53;;;17.57;72.22
81243;BME280;70716;50.074;14.496;2023-08-01T02:49:07;97833.25;;;17.53;72.25
81243;BME280;70716;50.074;14.496;2023-08-01T02:51:38;97826.16;;;17.45;72.90
81243;BME280;70716;50.074;14.496;2023-08-01T02:54:04;97813.56;;;17.47;72.49
81243;BME280;70716;50.074;14.496;2023-08-01T02:56:35;97811.19;;;17.46;73.10
81243;BME280;70716;50.074;14.496;2023-08-01T02:59:06;97804.13;;;17.48;73.34
81243;BME280;70716;50.074;14.496;2023-08-01T03:01:35;97802.53;;;17.44;73.94
81243;BME280;70716;50.074;14.496;2023-08-01T03:04:10;97800.94;;;17.39;73.81
81243;BME280;70716;50.074;14.496;2023-08-01T03:06:44;97791.09;;;17.31;75.24
81243;BME280;70716;50.074;14.496;2023-08-01T03:09:10;97796.97;;;17.30;74.96
81243;BME280;70716;50.074;14.496;2023-08-01T03:11:41;97806.03;;;17.30;75.07
81243;BME280;70716;50.074;14.496;2023-08-01T03:14:08;97805.22;;;17.26;75.91
81243;BME280;70716;50.074;14.496;2023-08-01T03:16:33;97794.22;;;17.26;75.13
81243;BME280;70716;50.074;14.496;2023-08-01T03:18:59;97791.88;;;17.28;75.54
81243;BME280;70716;50.074;14.496;2023-08-01T03:21:33;97792.28;;;17.37;73.88
81243;BME280;70716;50.074;14.496;2023-08-01T03:24:03;97789.50;;;17.30;74.73
81243;BME280;70716;50.074;14.496;2023-08-01T03:26:29;97786.75;;;17.27;74.14
81243;BME280;70716;50.074;14.496;2023-08-01T03:28:58;97792.66;;;17.36;73.79
81243;BME280;70716;50.074;14.496;2023-08-01T03:31:23;97782.44;;;17.36;73.85
81243;BME280;70716;50.074;14.496;2023-08-01T03:33:49;97776.53;;;17.34;74.25
81243;BME280;70716;50.074;14.496;2023-08-01T03:36:14;97778.09;;;17.32;73.80
81243;BME280;70716;50.074;14.496;2023-08-01T03:38:43;97779.28;;;17.31;73.28
81243;BME280;70716;50.074;14.496;2023-08-01T03:41:08;97768.69;;;17.33;74.20
81243;BME280;70716;50.074;14.496;2023-08-01T03:43:37;97764.34;;;17.32;74.89
81243;BME280;70716;50.074;14.496;2023-08-01T03:46:04;97754.50;;;17.34;73.48
81243;BME280;70716;50.074;14.496;2023-08-01T03:48:32;97753.75;;;17.44;72.38
81243;BME280;70716;50.074;14.496;2023-08-01T03:50:58;97753.75;;;17.44;72.40
81243;BME280;70716;50.074;14.496;2023-08-01T03:53:26;97749.81;;;17.42;71.85
81243;BME280;70716;50.074;14.496;2023-08-01T03:55:51;97753.72;;;17.41;73.45
81243;BME280;70716;50.074;14.496;2023-08-01T03:58:17;97749.78;;;17.31;73.14
81243;BME280;70716;50.074;14.496;2023-08-01T04:00:42;97762.78;;;17.38;72.52
81243;BME280;70716;50.074;14.496;2023-08-01T04:03:08;97762.78;;;17.38;72.08
81243;BME280;70716;50.074;14.496;2023-08-01T04:05:39;97759.22;;;17.30;72.85
81243;BME280;70716;50.074;14.496;2023-08-01T04:08:08;97750.16;;;17.33;72.37
81243;BME280;70716;50.074;14.496;2023-08-01T04:10:33;97752.53;;;17.35;73.11
81243;BME280;70716;50.074;14.496;2023-08-01T04:12:59;97736.00;;;17.35;72.67
81243;BME280;70716;50.074;14.496;2023-08-01T04:15:24;97736.81;;;17.39;72.28
81243;BME280;70716;50.074;14.496;2023-08-01T04:20:35;97720.31;;;17.46;72.15
81243;BME280;70716;50.074;14.496;2023-08-01T04:23:04;97725.03;;;17.49;72.45
81243;BME280;70716;50.074;14.496;2023-08-01T04:25:30;97719.94;;;17.55;71.36
81243;BME280;70716;50.074;14.496;2023-08-01T04:28:02;97714.44;;;17.58;71.48
81243;BME280;70716;50.074;14.496;2023-08-01T04:30:34;97713.66;;;17.61;71.15
81243;BME280;70716;50.074;14.496;2023-08-01T04:32:59;97714.84;;;17.60;71.50
81243;BME280;70716;50.074;14.496;2023-08-01T04:35:27;97717.59;;;17.57;71.75
81243;BME280;70716;50.074;14.496;2023-08-01T04:37:53;97711.69;;;17.55;71.36
81243;BME280;70716;50.074;14.496;2023-08-01T04:40:18;97708.16;;;17.61;70.98
81243;BME280;70716;50.074;14.496;2023-08-01T04:42:43;97707.38;;;17.64;71.32
81243;BME280;70716;50.074;14.496;2023-08-01T04:45:09;97708.16;;;17.65;71.34
81243;BME280;70716;50.074;14.496;2023-08-01T04:47:37;97711.75;;;17.65;70.99
81243;BME280;70716;50.074;14.496;2023-08-01T04:50:02;97703.44;;;17.58;72.02
81243;BME280;70716;50.074;14.496;2023-08-01T04:52:28;97703.03;;;17.56;72.30
81243;BME280;70716;50.074;14.496;2023-08-01T04:54:56;97699.91;;;17.61;71.36
81243;BME280;70716;50.074;14.496;2023-08-01T04:57:27;97700.34;;;17.67;71.88
81243;BME280;70716;50.074;14.496;2023-08-01T04:59:53;97698.75;;;17.66;71.85
81243;BME280;70716;50.074;14.496;2023-08-01T05:02:19;97698.75;;;17.66;71.81
81243;BME280;70716;50.074;14.496;2023-08-01T05:04:44;97703.09;;;17.67;71.18
81243;BME280;70716;50.074;14.496;2023-08-01T05:07:09;97696.75;;;17.63;71.85
81243;BME280;70716;50.074;14.496;2023-08-01T05:09:35;97684.19;;;17.69;71.64
81243;BME280;70716;50.074;14.496;2023-08-01T05:12:00;97686.53;;;17.63;71.71
81243;BME280;70716;50.074;14.496;2023-08-01T05:14:26;97679.03;;;17.64;71.20
81243;BME280;70716;50.074;14.496;2023-08-01T05:16:51;97677.88;;;17.65;70.83
81243;BME280;70716;50.074;14.496;2023-08-01T05:19:18;97683.75;;;17.63;71.45
81243;BME280;70716;50.074;14.496;2023-08-01T05:21:43;97666.09;;;17.71;70.71
81243;BME280;70716;50.074;14.496;2023-08-01T05:24:09;97669.66;;;17.75;70.59
81243;BME280;70716;50.074;14.496;2023-08-01T05:26:35;97675.56;;;17.81;70.63
81243;BME280;70716;50.074;14.496;2023-08-01T05:29:03;97662.56;;;17.85;69.97
81243;BME280;70716;50.074;14.496;2023-08-01T05:31:29;97662.59;;;17.89;69.92
81243;BME280;70716;50.074;14.496;2023-08-01T05:33:54;97657.03;;;17.92;69.98
81243;BME280;70716;50.074;14.496;2023-08-01T05:36:20;97660.59;;;17.89;71.03
81243;BME280;70716;50.074;14.496;2023-08-01T05:38:45;97662.94;;;17.94;70.36
81243;BME280;70716;50.074;14.496;2023-08-01T05:41:11;97660.97;;;17.95;70.77
81243;BME280;70716;50.074;14.496;2023-08-01T05:43:36;97660.19;;;17.94;70.82
81243;BME280;70716;50.074;14.496;2023-08-01T05:46:02;97653.50;;;17.99;70.55
81243;BME280;70716;50.074;14.496;2023-08-01T05:48:27;97650.75;;;17.99;70.70
81243;BME280;70716;50.074;14.496;2023-08-01T05:50:53;97650.34;;;18.04;70.56
81243;BME280;70716;50.074;14.496;2023-08-01T05:53:21;97642.06;;;18.11;70.15
81243;BME280;70716;50.074;14.496;2023-08-01T05:55:46;97645.63;;;18.26;69.46
81243;BME280;70716;50.074;14.496;2023-08-01T05:58:12;97648.75;;;18.28;69.36
81243;BME280;70716;50.074;14.496;2023-08-01T06:00:37;97638.91;;;18.37;68.46
81243;BME280;70716;50.074;14.496;2023-08-01T06:03:03;97632.19;;;18.45;68.14
81243;BME280;70716;50.074;14.496;2023-08-01T06:05:29;97635.69;;;18.49;68.76
81243;BME280;70716;50.074;14.496;2023-08-01T06:07:55;97628.59;;;18.59;68.18
81243;BME280;70716;50.074;14.496;2023-08-01T06:10:21;97621.13;;;18.49;68.08
81243;BME280;70716;50.074;14.496;2023-08-01T06:12:47;97628.25;;;18.46;68.79
81243;BME280;70716;50.074;14.496;2023-08-01T06:15:13;97623.88;;;18.49;68.72
81243;BME280;70716;50.074;14.496;2023-08-01T06:17:38;97611.63;;;18.57;69.38
81243;BME280;70716;50.074;14.496;2023-08-01T06:20:04;97609.28;;;18.52;69.57
81243;BME280;70716;50.074;14.496;2023-08-01T06:22:30;97620.72;;;18.51;70.24
81243;BME280;70716;50.074;14.496;2023-08-01T06:24:59;97605.78;;;18.41;70.64
81243;BME280;70716;50.074;14.496;2023-08-01T06:27:25;97605.41;;;18.35;70.92
81243;BME280;70716;50.074;14.496;2023-08-01T06:29:50;97604.25;;;18.29;71.24
81243;BME280;70716;50.074;14.496;2023-08-01T06:32:16;97602.28;;;18.23;71.23
81243;BME280;70716;50.074;14.496;2023-08-01T06:34:41;97607.03;;;18.19;72.33
81243;BME280;70716;50.074;14.496;2023-08-01T06:37:07;97607.81;;;18.15;72.17
81243;BME280;70716;50.074;14.496;2023-08-01T06:39:44;97602.69;;;18.03;72.69
81243;BME280;70716;50.074;14.496;2023-08-01T06:42:10;97612.16;;;18.09;72.87
81243;BME280;70716;50.074;14.496;2023-08-01T06:44:41;97604.66;;;18.10;72.59
81243;BME280;70716;50.074;14.496;2023-08-01T06:47:06;97596.78;;;18.08;73.38
81243;BME280;70716;50.074;14.496;2023-08-01T06:49:32;97596.00;;;18.11;73.16
81243;BME280;70716;50.074;14.496;2023-08-01T06:51:57;97593.63;;;18.17;72.76
81243;BME280;70716;50.074;14.496;2023-08-01T06:54:22;97584.56;;;18.17;72.79
81243;BME280;70716;50.074;14.496;2023-08-01T06:56:48;97583.78;;;18.12;72.75
81243;BME280;70716;50.074;14.496;2023-08-01T06:59:19;97595.22;;;18.14;73.26
81243;BME280;70716;50.074;14.496;2023-08-01T07:01:44;97581.81;;;18.24;73.22
81243;BME280;70716;50.074;14.496;2023-08-01T07:04:10;97573.53;;;18.17;73.07
81243;BME280;70716;50.074;14.496;2023-08-01T07:06:41;97574.31;;;18.24;72.58
81243;BME280;70716;50.074;14.496;2023-08-01T07:09:07;97571.56;;;18.28;72.23
81243;BME280;70716;50.074;14.496;2023-08-01T07:11:32;97579.44;;;18.26;73.04
81243;BME280;70716;50.074;14.496;2023-08-01T07:13:58;97567.22;;;18.30;71.97
81243;BME280;70716;50.074;14.496;2023-08-01T07:16:24;97574.31;;;18.28;72.29
81243;BME280;70716;50.074;14.496;2023-08-01T07:18:49;97580.19;;;18.37;71.57
81243;BME280;70716;50.074;14.496;2023-08-01T07:21:16;97569.56;;;18.39;71.03
81243;BME280;70716;50.074;14.496;2023-08-01T07:23:42;97574.66;;;18.44;71.21
81243;BME280;70716;50.074;14.496;2023-08-01T07:26:09;97577.81;;;18.39;71.88
81243;BME280;70716;50.074;14.496;2023-08-01T07:28:35;97586.47;;;18.44;71.44
81243;BME280;70716;50.074;14.496;2023-08-01T07:31:02;97576.66;;;18.36;71.65
81243;BME280;70716;50.074;14.496;2023-08-01T07:33:32;97583.34;;;18.39;72.20
81243;BME280;70716;50.074;14.496;2023-08-01T07:35:58;97585.72;;;18.33;72.98
81243;BME280;70716;50.074;14.496;2023-08-01T07:38:24;97583.78;;;18.23;73.76
81243;BME280;70716;50.074;14.496;2023-08-01T07:40:53;97577.88;;;18.18;73.46
81243;BME280;70716;50.074;14.496;2023-08-01T07:43:19;97578.66;;;18.22;74.18
81243;BME280;70716;50.074;14.496;2023-08-01T07:45:46;97576.66;;;18.33;73.77
81243;BME280;70716;50.074;14.496;2023-08-01T07:48:14;97592.81;;;18.38;73.87
81243;BME280;70716;50.074;14.496;2023-08-01T07:50:40;97588.47;;;18.40;73.15
81243;BME280;70716;50.074;14.496;2023-08-01T07:53:05;97597.13;;;18.42;73.26
81243;BME280;70716;50.074;14.496;2023-08-01T07:55:33;97580.97;;;18.44;72.46
81243;BME280;70716;50.074;14.496;2023-08-01T07:57:59;97583.34;;;18.42;72.73
81243;BME280;70716;50.074;14.496;2023-08-01T08:00:25;97582.09;;;18.54;72.83
81243;BME280;70716;50.074;14.496;2023-08-01T08:02:53;97580.13;;;18.51;73.13
81243;BME280;70716;50.074;14.496;2023-08-01T08:05:19;97591.63;;;18.42;73.71
81243;BME280;70716;50.074;14.496;2023-08-01T08:07:44;97578.19;;;18.48;72.58
81243;BME280;70716;50.074;14.496;2023-08-01T08:10:10;97581.69;;;18.56;73.17
81243;BME280;70716;50.074;14.496;2023-08-01T08:12:35;97574.19;;;18.56;73.07
81243;BME280;70716;50.074;14.496;2023-08-01T08:15:01;97578.94;;;18.59;73.26
81243;BME280;70716;50.074;14.496;2023-08-01T08:17:26;97581.75;;;18.45;74.50
81243;BME280;70716;50.074;14.496;2023-08-01T08:19:54;97582.09;;;18.51;74.82
81243;BME280;70716;50.074;14.496;2023-08-01T08:22:22;97580.19;;;18.40;75.06
81243;BME280;70716;50.074;14.496;2023-08-01T08:24:48;97579.81;;;18.31;75.51
81243;BME280;70716;50.074;14.496;2023-08-01T08:27:13;97582.97;;;18.37;74.91
81243;BME280;70716;50.074;14.496;2023-08-01T08:29:42;97581.78;;;18.38;75.11
81243;BME280;70716;50.074;14.496;2023-08-01T08:32:07;97586.09;;;18.42;74.93
81243;BME280;70716;50.074;14.496;2023-08-01T08:34:34;97574.28;;;18.38;75.39
81243;BME280;70716;50.074;14.496;2023-08-01T08:37:00;97573.09;;;18.43;74.92
81243;BME280;70716;50.074;14.496;2023-08-01T08:39:25;97569.50;;;18.60;74.40
81243;BME280;70716;50.074;14.496;2023-08-01T08:41:52;97574.59;;;18.69;74.69
81243;BME280;70716;50.074;14.496;2023-08-01T08:44:18;97576.50;;;18.83;73.42
81243;BME280;70716;50.074;14.496;2023-08-01T08:46:52;97578.09;;;18.76;74.32
81243;BME280;70716;50.074;14.496;2023-08-01T08:49:35;97581.22;;;18.86;73.97
81243;BME280;70716;50.074;14.496;2023-08-01T08:52:00;97578.09;;;18.76;73.78
81243;BME280;70716;50.074;14.496;2023-08-01T08:54:28;97581.97;;;18.93;72.63
81243;BME280;70716;50.074;14.496;2023-08-01T08:56:54;97596.19;;;18.88;73.14
81243;BME280;70716;50.074;14.496;2023-08-01T08:59:21;97586.41;;;18.73;73.76
81243;BME280;70716;50.074;14.496;2023-08-01T09:01:46;97585.66;;;18.62;73.41
81243;BME280;70716;50.074;14.496;2023-08-01T09:04:13;97591.13;;;18.69;73.09
81243;BME280;70716;50.074;14.496;2023-08-01T09:06:46;97604.56;;;18.56;74.02
81243;BME280;70716;50.074;14.496;2023-08-01T09:09:13;97601.38;;;18.68;73.66
81243;BME280;70716;50.074;14.496;2023-08-01T09:11:47;97595.88;;;18.54;73.44
81243;BME280;70716;50.074;14.496;2023-08-01T09:14:13;97586.81;;;18.64;73.74
81243;BME280;70716;50.074;14.496;2023-08-01T09:16:44;97590.75;;;18.70;72.68
81243;BME280;70716;50.074;14.496;2023-08-01T09:19:10;97593.88;;;18.72;72.82
81243;BME280;70716;50.074;14.496;2023-08-01T09:21:38;97586.34;;;18.84;72.62
81243;BME280;70716;50.074;14.496;2023-08-01T09:24:13;97580.84;;;18.84;71.99
81243;BME280;70716;50.074;14.496;2023-08-01T09:26:39;97581.19;;;18.89;71.67
81243;BME280;70716;50.074;14.496;2023-08-01T09:29:06;97596.97;;;18.92;70.70
81243;BME280;70716;50.074;14.496;2023-08-01T09:31:36;97592.13;;;19.07;70.88
81243;BME280;70716;50.074;14.496;2023-08-01T09:34:04;97585.88;;;19.03;70.28
81243;BME280;70716;50.074;14.496;2023-08-01T09:36:35;97585.31;;;19.26;69.48
81243;BME280;70716;50.074;14.496;2023-08-01T09:39:02;97592.69;;;19.54;69.55
81243;BME280;70716;50.074;14.496;2023-08-01T09:41:31;97575.00;;;19.37;69.51
81243;BME280;70716;50.074;14.496;2023-08-01T09:43:57;97587.53;;;19.56;68.69
81243;BME280;70716;50.074;14.496;2023-08-01T09:46:24;97584.91;;;19.86;67.84
81243;BME280;70716;50.074;14.496;2023-08-01T09:48:49;97577.44;;;19.79;67.65
81243;BME280;70716;50.074;14.496;2023-08-01T09:51:17;97575.50;;;19.76;68.07
81243;BME280;70716;50.074;14.496;2023-08-01T09:53:50;97575.44;;;19.84;67.55
81243;BME280;70716;50.074;14.496;2023-08-01T09:56:23;97567.53;;;19.86;67.39
81243;BME280;70716;50.074;14.496;2023-08-01T09:58:50;97570.53;;;20.02;66.65
81243;BME280;70716;50.074;14.496;2023-08-01T10:01:16;97570.78;;;20.18;66.81
81243;BME280;70716;50.074;14.496;2023-08-01T10:03:45;97566.75;;;20.23;67.12
81243;BME280;70716;50.074;14.496;2023-08-01T10:06:14;97571.56;;;20.19;66.40
81243;BME280;70716;50.074;14.496;2023-08-01T10:08:42;97576.50;;;20.38;65.65
81243;BME280;70716;50.074;14.496;2023-08-01T10:11:08;97569.38;;;20.37;65.96
81243;BME280;70716;50.074;14.496;2023-08-01T10:13:34;97583.09;;;20.51;65.65
81243;BME280;70716;50.074;14.496;2023-08-01T10:16:00;97578.53;;;20.30;65.23
81243;BME280;70716;50.074;14.496;2023-08-01T10:18:28;97573.50;;;20.22;65.45
81243;BME280;70716;50.074;14.496;2023-08-01T10:20:55;97575.31;;;20.35;65.39
81243;BME280;70716;50.074;14.496;2023-08-01T10:23:21;97574.09;;;20.43;65.63
81243;BME280;70716;50.074;14.496;2023-08-01T10:25:48;97574.63;;;20.65;65.19
81243;BME280;70716;50.074;14.496;2023-08-01T10:28:16;97560.13;;;20.85;63.65
81243;BME280;70716;50.074;14.496;2023-08-01T10:30:45;97564.84;;;20.88;62.91
81243;BME280;70716;50.074;14.496;2023-08-01T10:33:12;97553.75;;;21.18;62.27
81243;BME280;70716;50.074;14.496;2023-08-01T10:35:39;97548.69;;;21.13;62.11
81243;BME280;70716;50.074;14.496;2023-08-01T10:38:10;97550.34;;;21.07;62.68
81243;BME280;70716;50.074;14.496;2023-08-01T10:40:41;97542.78;;;20.81;64.02
81243;BME280;70716;50.074;14.496;2023-08-01T10:43:19;97535.34;;;21.04;63.24
81243;BME280;70716;50.074;14.496;2023-08-01T10:45:46;97541.16;;;21.14;63.33
81243;BME280;70716;50.074;14.496;2023-08-01T10:48:11;97529.84;;;21.31;62.34
81243;BME280;70716;50.074;14.496;2023-08-01T10:50:39;97523.78;;;21.09;61.57
81243;BME280;70716;50.074;14.496;2023-08-01T10:53:13;97515.06;;;21.11;61.97
81243;BME280;70716;50.074;14.496;2023-08-01T10:55:45;97504.16;;;21.00;62.88
81243;BME280;70716;50.074;14.496;2023-08-01T10:58:12;97513.22;;;20.74;64.38
81243;BME280;70716;50.074;14.496;2023-08-01T11:00:44;97506.78;;;20.81;62.72
81243;BME280;70716;50.074;14.496;2023-08-01T11:03:10;97514.16;;;20.91;62.75
81243;BME280;70716;50.074;14.496;2023-08-01T11:05:35;97523.09;;;20.75;63.30
81243;BME280;70716;50.074;14.496;2023-08-01T11:08:03;97518.72;;;20.77;62.74
81243;BME280;70716;50.074;14.496;2023-08-01T11:10:33;97518.66;;;20.81;62.70
81243;BME280;70716;50.074;14.496;2023-08-01T11:12:59;97509.81;;;20.90;62.87
81243;BME280;70716;50.074;14.496;2023-08-01T11:15:25;97513.56;;;20.80;62.17
81243;BME280;70716;50.074;14.496;2023-08-01T11:17:55;97510.94;;;20.96;62.11
81243;BME280;70716;50.074;14.496;2023-08-01T11:20:24;97507.81;;;21.21;61.25
81243;BME280;70716;50.074;14.496;2023-08-01T11:22:58;97499.25;;;21.62;59.43
81243;BME280;70716;50.074;14.496;2023-08-01T11:25:41;97483.56;;;21.75;59.53
81243;BME280;70716;50.074;14.496;2023-08-01T11:28:17;97481.66;;;21.72;58.80
81243;BME280;70716;50.074;14.496;2023-08-01T11:30:43;97475.97;;;21.79;60.00
81243;BME280;70716;50.074;14.496;2023-08-01T11:33:17;97485.34;;;22.08;58.60
81243;BME280;70716;50.074;14.496;2023-08-01T11:35:43;97482.44;;;22.16;58.70
81243;BME280;70716;50.074;14.496;2023-08-01T11:38:09;97479.50;;;22.03;58.57
81243;BME280;70716;50.074;14.496;2023-08-01T11:40:35;97479.75;;;21.89;57.38
81243;BME280;70716;50.074;14.496;2023-08-01T11:43:02;97496.94;;;21.57;57.77
81243;BME280;70716;50.074;14.496;2023-08-01T11:45:31;97503.56;;;21.86;57.95
81243;BME280;70716;50.074;14.496;2023-08-01T11:47:57;97500.69;;;21.70;57.41
81243;BME280;70716;50.074;14.496;2023-08-01T11:50:24;97491.09;;;21.51;57.69
81243;BME280;70716;50.074;14.496;2023-08-01T11:52:50;97497.38;;;21.55;58.64
81243;BME280;70716;50.074;14.496;2023-08-01T11:55:28;97495.09;;;21.73;58.13
81243;BME280;70716;50.074;14.496;2023-08-01T11:57:56;97488.06;;;22.32;57.06
81243;BME280;70716;50.074;14.496;2023-08-01T12:00:28;97495.59;;;22.31;55.66
81243;BME280;70716;50.074;14.496;2023-08-01T12:03:07;97499.31;;;22.25;55.57
81243;BME280;70716;50.074;14.496;2023-08-01T12:05:39;97500.88;;;22.26;55.31
81243;BME280;70716;50.074;14.496;2023-08-01T12:08:14;97488.34;;;22.37;55.01
81243;BME280;70716;50.074;14.496;2023-08-01T12:10:44;97487.03;;;22.82;55.88
81243;BME280;70716;50.074;14.496;2023-08-01T12:13:24;97493.63;;;22.52;54.66
81243;BME280;70716;50.074;14.496;2023-08-01T12:15:52;97493.97;;;22.34;55.08
81243;BME280;70716;50.074;14.496;2023-08-01T12:18:26;97485.38;;;22.48;55.76
81243;BME280;70716;50.074;14.496;2023-08-01T12:20:53;97505.94;;;22.31;54.64
81243;BME280;70716;50.074;14.496;2023-08-01T12:23:19;97508.84;;;22.00;55.41
81243;BME280;70716;50.074;14.496;2023-08-01T12:25:45;97500.22;;;22.58;55.45
81243;BME280;70716;50.074;14.496;2023-08-01T12:28:12;97501.75;;;22.98;53.61
81243;BME280;70716;50.074;14.496;2023-08-01T12:30:42;97501.00;;;23.30;53.06
81243;BME280;70716;50.074;14.496;2023-08-01T12:33:09;97502.94;;;23.66;51.27
81243;BME280;70716;50.074;14.496;2023-08-01T12:35:39;97491.00;;;23.33;52.75
81243;BME280;70716;50.074;14.496;2023-08-01T12:38:04;97499.00;;;23.47;52.04
81243;BME280;70716;50.074;14.496;2023-08-01T12:40:30;97495.59;;;23.72;55.22
81243;BME280;70716;50.074;14.496;2023-08-01T12:42:55;97493.38;;;23.67;51.80
81243;BME280;70716;50.074;14.496;2023-08-01T12:45:21;97498.03;;;23.70;51.16
81243;BME280;70716;50.074;14.496;2023-08-01T12:47:48;97480.38;;;23.12;54.02
81243;BME280;70716;50.074;14.496;2023-08-01T12:50:14;97494.13;;;23.19;56.37
81243;BME280;70716;50.074;14.496;2023-08-01T12:52:39;97498.53;;;23.00;53.51
81243;BME280;70716;50.074;14.496;2023-08-01T12:55:05;97499.06;;;22.95;53.28